createdAt,value
2019-05-11T00:00:10.014Z,7.03
2019-05-11T00:02:39.433Z,7.73
2019-05-11T00:05:09.103Z,7.27
2019-05-11T00:07:38.515Z,7.07
2019-05-11T00:10:08.360Z,6.83
2019-05-11T00:12:37.758Z,7.90
2019-05-11T00:15:08.309Z,6.90
2019-05-11T00:17:37.718Z,6.93
2019-05-11T00:20:09.010Z,7.27
2019-05-11T00:22:38.393Z,6.33
2019-05-11T00:25:08.650Z,4.27
2019-05-11T00:27:38.111Z,6.73
2019-05-11T00:30:08.120Z,7.00
2019-05-11T00:32:37.630Z,6.10
2019-05-11T00:35:07.730Z,6.83
2019-05-11T00:37:37.158Z,5.50
2019-05-11T00:40:14.375Z,7.70
2019-05-11T00:42:37.956Z,7.27
2019-05-11T00:45:07.814Z,6.67
2019-05-11T00:47:37.207Z,8.03
2019-05-11T00:50:08.359Z,8.43
2019-05-11T00:52:37.862Z,8.40
2019-05-11T00:55:07.600Z,6.20
2019-05-11T00:57:37.022Z,8.93
2019-05-11T01:00:07.977Z,6.93
2019-05-11T01:02:37.379Z,6.13
2019-05-11T01:05:08.642Z,7.33
2019-05-11T01:07:38.039Z,7.63
2019-05-11T01:10:21.736Z,4.87
2019-05-11T01:12:39.222Z,7.20
2019-05-11T01:15:09.161Z,7.47
2019-05-11T01:17:38.580Z,6.77
2019-05-11T01:20:08.408Z,6.87
2019-05-11T01:22:37.832Z,6.50
2019-05-11T01:25:07.569Z,7.93
2019-05-11T01:27:37.013Z,6.70
2019-05-11T01:30:07.557Z,7.23
2019-05-11T01:32:37.005Z,7.50
2019-05-11T01:35:08.398Z,5.93
2019-05-11T01:37:37.809Z,8.37
2019-05-11T01:40:07.854Z,6.93
2019-05-11T01:42:37.257Z,7.47
2019-05-11T01:45:07.391Z,7.43
2019-05-11T01:47:36.805Z,10.30
2019-05-11T01:50:06.695Z,9.67
2019-05-11T01:52:36.111Z,8.30
2019-05-11T01:55:05.580Z,8.17
2019-05-11T01:57:35.009Z,9.67
2019-05-11T02:00:07.450Z,8.67
2019-05-11T02:02:36.862Z,7.47
2019-05-11T02:05:25.543Z,6.90
2019-05-11T02:07:55.022Z,8.83
2019-05-11T02:10:24.653Z,7.70
2019-05-11T02:12:54.309Z,7.60
2019-05-11T02:15:23.878Z,8.53
2019-05-11T02:17:53.352Z,9.43
2019-05-11T02:20:22.752Z,8.47
2019-05-11T02:22:52.176Z,7.77
2019-05-11T02:25:21.542Z,7.40
2019-05-11T02:27:50.966Z,8.97
2019-05-11T02:30:20.496Z,8.40
2019-05-11T02:32:49.917Z,9.73
2019-05-11T02:35:19.312Z,9.13
2019-05-11T02:37:48.767Z,8.13
2019-05-11T02:40:18.702Z,10.27
2019-05-11T02:42:48.113Z,9.63
2019-05-11T02:45:20.556Z,7.77
2019-05-11T02:47:49.972Z,6.47
2019-05-11T02:50:19.361Z,8.87
2019-05-11T02:52:49.013Z,8.10
2019-05-11T02:55:18.399Z,8.17
2019-05-11T02:57:47.815Z,6.17
2019-05-11T03:00:20.256Z,9.00
2019-05-11T03:02:49.649Z,6.47
2019-05-11T03:05:20.637Z,6.87
2019-05-11T03:07:50.061Z,9.70
2019-05-11T03:10:19.454Z,8.60
2019-05-11T03:12:48.874Z,8.93
2019-05-11T03:15:18.258Z,6.23
2019-05-11T03:17:47.692Z,6.13
2019-05-11T03:20:17.104Z,7.57
2019-05-11T03:22:46.491Z,6.60
2019-05-11T03:25:15.908Z,7.40
2019-05-11T03:27:45.290Z,7.50
2019-05-11T03:30:15.054Z,6.27
2019-05-11T03:32:44.459Z,6.97
2019-05-11T03:35:14.142Z,6.20
2019-05-11T03:37:43.518Z,6.17
2019-05-11T03:40:14.073Z,7.27
2019-05-11T03:42:43.463Z,8.20
2019-05-11T03:45:13.711Z,7.50
2019-05-11T03:47:43.119Z,6.50
2019-05-11T03:50:13.053Z,6.83
2019-05-11T03:52:42.445Z,7.53
2019-05-11T03:55:12.301Z,6.57
2019-05-11T03:57:41.710Z,5.47
2019-05-11T04:00:11.666Z,6.53
2019-05-11T04:02:41.060Z,5.97
2019-05-11T04:05:10.565Z,5.37
2019-05-11T04:07:39.944Z,5.43
2019-05-11T04:10:10.493Z,7.80
2019-05-11T04:12:39.881Z,8.27
2019-05-11T04:15:10.448Z,7.63
2019-05-11T04:17:39.844Z,7.77
2019-05-11T04:20:09.676Z,5.20
2019-05-11T04:22:39.123Z,4.70
2019-05-11T04:25:08.673Z,6.87
2019-05-11T04:27:38.110Z,7.60
2019-05-11T04:30:08.249Z,4.73
2019-05-11T04:32:37.644Z,7.07
2019-05-11T04:35:07.223Z,6.60
2019-05-11T04:37:36.650Z,6.13
2019-05-11T04:40:06.751Z,7.77
2019-05-11T04:42:53.518Z,4.90
2019-05-11T04:45:08.707Z,7.57
2019-05-11T04:47:38.111Z,5.93
2019-05-11T04:50:10.441Z,5.13
2019-05-11T04:52:39.827Z,5.30
2019-05-11T04:55:09.315Z,6.43
2019-05-11T04:57:38.727Z,5.50
2019-05-11T05:00:08.882Z,6.47
2019-05-11T05:02:38.279Z,8.20
2019-05-11T05:05:08.180Z,5.57
2019-05-11T05:07:48.152Z,6.17
2019-05-11T05:10:08.690Z,6.53
2019-05-11T05:12:38.084Z,7.07
2019-05-11T05:15:07.571Z,6.77
2019-05-11T05:17:36.961Z,5.70
2019-05-11T05:20:08.314Z,6.67
2019-05-11T05:22:37.764Z,5.27
2019-05-11T05:25:08.049Z,7.30
2019-05-11T05:27:37.447Z,5.97
2019-05-11T05:30:07.591Z,5.97
2019-05-11T05:32:37.134Z,4.73
2019-05-11T05:35:06.976Z,5.13
2019-05-11T05:37:36.537Z,7.03
2019-05-11T05:40:06.185Z,5.93
2019-05-11T05:42:35.578Z,6.17
2019-05-11T05:45:06.937Z,5.50
2019-05-11T05:47:36.331Z,7.63
2019-05-11T05:50:07.440Z,3.83
2019-05-11T05:52:36.970Z,4.50
2019-05-11T05:55:06.960Z,4.77
2019-05-11T05:57:36.341Z,4.67
2019-05-11T06:00:06.173Z,6.83
2019-05-11T06:02:35.870Z,5.13
2019-05-11T06:05:07.243Z,6.03
2019-05-11T06:07:36.665Z,6.40
2019-05-11T06:10:09.215Z,6.83
2019-05-11T06:12:38.612Z,11.03
2019-05-11T06:15:08.660Z,3.20
2019-05-11T06:17:38.061Z,3.97
2019-05-11T06:20:08.548Z,5.30
2019-05-11T06:22:38.331Z,6.43
2019-05-11T06:25:08.213Z,4.53
2019-05-11T06:27:37.687Z,3.10
2019-05-11T06:30:08.033Z,3.83
2019-05-11T06:32:37.450Z,3.13
2019-05-11T06:35:07.689Z,5.00
2019-05-11T06:37:37.124Z,3.10
2019-05-11T06:40:07.651Z,4.97
2019-05-11T06:42:37.077Z,7.27
2019-05-11T06:45:07.118Z,3.67
2019-05-11T06:47:36.548Z,4.30
2019-05-11T06:50:06.444Z,4.50
2019-05-11T06:52:35.930Z,3.63
2019-05-11T06:55:05.580Z,5.93
2019-05-11T06:57:34.990Z,2.33
2019-05-11T07:00:05.531Z,4.20
2019-05-11T07:02:35.903Z,3.40
2019-05-11T07:05:08.035Z,2.70
2019-05-11T07:07:46.932Z,5.30
2019-05-11T07:10:09.487Z,6.50
2019-05-11T07:12:38.906Z,2.13
2019-05-11T07:15:09.325Z,1.50
2019-05-11T07:17:38.748Z,1.83
2019-05-11T07:20:08.488Z,0.93
2019-05-11T07:22:37.908Z,2.00
2019-05-11T07:25:08.239Z,1.90
2019-05-11T07:27:37.656Z,1.80
2019-05-11T07:30:07.586Z,1.37
2019-05-11T07:32:38.081Z,1.43
2019-05-11T07:35:08.560Z,0.53
2019-05-11T07:37:38.602Z,0.20
2019-05-11T07:40:08.932Z,1.73
2019-05-11T07:42:38.403Z,0.50
2019-05-11T07:45:09.096Z,1.33
2019-05-11T07:47:38.757Z,2.83
2019-05-11T07:50:09.189Z,0.70
2019-05-11T07:52:38.626Z,2.73
2019-05-11T07:55:08.832Z,1.13
2019-05-11T07:57:39.290Z,0.40
2019-05-11T08:00:09.186Z,0.97
2019-05-11T08:02:39.051Z,0.77
2019-05-11T08:05:08.967Z,2.00
2019-05-11T08:07:38.497Z,0.73
2019-05-11T08:10:08.494Z,1.50
2019-05-11T08:12:39.200Z,0.83
2019-05-11T08:15:13.183Z,0.77
2019-05-11T08:17:40.411Z,1.70
2019-05-11T08:20:10.756Z,2.00
2019-05-11T08:22:40.181Z,1.03
2019-05-11T08:25:09.583Z,0.93
2019-05-11T08:27:39.023Z,2.33
2019-05-11T08:30:12.493Z,2.00
2019-05-11T08:32:42.348Z,1.60
2019-05-11T08:35:11.817Z,0.90
2019-05-11T08:37:41.230Z,1.40
2019-05-11T08:40:10.895Z,0.83
2019-05-11T08:42:40.312Z,1.30
2019-05-11T08:45:20.494Z,0.77
2019-05-11T08:47:41.085Z,1.13
2019-05-11T08:50:10.717Z,1.77
2019-05-11T08:52:40.143Z,2.07
2019-05-11T08:55:09.979Z,1.53
2019-05-11T08:57:39.440Z,1.10
2019-05-11T09:00:13.729Z,0.90
2019-05-11T09:02:46.685Z,2.33
2019-05-11T09:05:14.953Z,1.73
2019-05-11T09:07:44.455Z,1.60
2019-05-11T09:10:14.298Z,1.37
2019-05-11T09:12:43.711Z,1.30
2019-05-11T09:15:28.138Z,1.33
2019-05-11T09:17:44.724Z,1.93
2019-05-11T09:20:14.668Z,1.80
2019-05-11T09:22:44.091Z,0.87
2019-05-11T09:27:49.814Z,1.57
2019-05-11T09:30:19.559Z,0.97
2019-05-11T09:32:48.980Z,1.73
2019-05-11T09:35:19.060Z,2.63
2019-05-11T09:37:48.720Z,0.60
2019-05-11T09:40:18.646Z,1.30
2019-05-11T09:42:48.176Z,2.07
2019-05-11T09:45:18.747Z,0.77
2019-05-11T09:47:48.485Z,1.67
2019-05-11T09:50:18.194Z,1.37
2019-05-11T09:52:48.980Z,0.93
2019-05-11T09:55:19.141Z,1.00
2019-05-11T09:57:48.970Z,1.90
2019-05-11T10:00:19.196Z,1.27
2019-05-11T10:02:48.986Z,0.40
2019-05-11T10:05:22.073Z,2.50
2019-05-11T10:07:53.068Z,2.33
2019-05-11T10:10:22.481Z,2.00
2019-05-11T10:12:52.951Z,1.47
2019-05-11T10:15:22.471Z,1.63
2019-05-11T10:17:51.860Z,1.80
2019-05-11T10:20:21.343Z,1.10
2019-05-11T10:22:50.746Z,0.50
2019-05-11T10:25:20.156Z,2.77
2019-05-11T10:27:49.547Z,0.70
2019-05-11T10:30:19.312Z,1.67
2019-05-11T10:32:49.076Z,2.17
2019-05-11T10:35:18.658Z,1.03
2019-05-11T10:37:48.073Z,1.03
2019-05-11T10:40:19.030Z,1.43
2019-05-11T10:42:48.660Z,1.50
2019-05-11T10:45:18.290Z,3.07
2019-05-11T10:47:49.002Z,0.97
2019-05-11T10:50:18.988Z,0.93
2019-05-11T10:52:48.655Z,0.40
2019-05-11T10:55:19.406Z,0.53
2019-05-11T10:57:49.069Z,0.20
2019-05-11T11:00:19.423Z,0.47
2019-05-11T11:02:48.835Z,1.00
2019-05-11T11:05:18.913Z,0.60
2019-05-11T11:07:48.672Z,0.40
2019-05-11T11:10:18.443Z,1.70
2019-05-11T11:12:49.016Z,3.37
2019-05-11T11:15:18.899Z,1.90
2019-05-11T11:17:48.682Z,1.70
2019-05-11T11:20:18.758Z,2.23
2019-05-11T11:22:48.533Z,1.20
2019-05-11T11:25:18.396Z,0.80
2019-05-11T11:27:48.736Z,1.07
2019-05-11T11:30:18.845Z,1.13
2019-05-11T11:32:48.478Z,1.07
2019-05-11T11:35:18.708Z,1.00
2019-05-11T11:37:48.346Z,0.90
2019-05-11T11:40:18.360Z,0.80
2019-05-11T11:42:48.031Z,0.53
2019-05-11T11:45:18.431Z,0.90
2019-05-11T11:47:49.355Z,0.57
2019-05-11T11:50:19.069Z,1.17
2019-05-11T11:52:48.561Z,0.93
2019-05-11T11:55:18.773Z,1.60
2019-05-11T11:57:50.313Z,1.10
2019-05-11T12:00:20.209Z,1.70
2019-05-11T12:02:49.790Z,1.27
2019-05-11T12:05:19.212Z,1.70
2019-05-11T12:07:49.196Z,1.40
2019-05-11T12:10:19.440Z,1.63
2019-05-11T12:12:48.857Z,1.40
2019-05-11T12:15:18.444Z,1.37
2019-05-11T12:17:48.395Z,2.20
2019-05-11T12:20:18.375Z,1.47
2019-05-11T12:22:47.890Z,0.80
2019-05-11T12:25:18.609Z,1.40
2019-05-11T12:27:49.068Z,1.80
2019-05-11T12:30:18.960Z,1.27
2019-05-11T12:32:51.164Z,0.63
2019-05-11T12:35:20.718Z,0.83
2019-05-11T12:37:50.117Z,0.50
2019-05-11T12:40:20.071Z,1.10
2019-05-11T12:42:49.479Z,0.77
2019-05-11T12:45:19.144Z,1.27
2019-05-11T12:47:48.715Z,1.20
2019-05-11T12:50:20.172Z,1.07
2019-05-11T12:52:49.574Z,0.60
2019-05-11T12:55:19.568Z,0.63
2019-05-11T12:57:48.994Z,1.93
2019-05-11T13:00:18.651Z,1.53
2019-05-11T13:02:48.637Z,1.13
2019-05-11T13:05:18.315Z,1.20
2019-05-11T13:07:48.303Z,1.70
2019-05-11T13:10:18.069Z,1.30
2019-05-11T13:12:49.371Z,2.10
2019-05-11T13:15:19.001Z,1.10
2019-05-11T13:17:49.184Z,1.43
2019-05-11T13:20:18.854Z,1.73
2019-05-11T13:22:49.055Z,4.13
2019-05-11T13:25:18.531Z,1.67
2019-05-11T13:27:49.232Z,1.53
2019-05-11T13:30:18.898Z,1.60
2019-05-11T13:32:49.021Z,2.37
2019-05-11T13:35:18.702Z,2.03
2019-05-11T13:37:48.229Z,1.10
2019-05-11T13:40:18.648Z,1.83
2019-05-11T13:42:48.998Z,1.97
2019-05-11T13:45:18.707Z,1.60
2019-05-11T13:47:55.204Z,2.13
2019-05-11T13:50:19.306Z,1.73
2019-05-11T13:52:48.721Z,1.17
2019-05-11T13:55:18.393Z,1.80
2019-05-11T13:57:48.619Z,1.70
2019-05-11T14:00:18.348Z,1.53
2019-05-11T14:02:48.674Z,2.10
2019-05-11T14:05:18.332Z,2.00
2019-05-11T14:07:48.303Z,1.10
2019-05-11T14:10:18.396Z,2.47
2019-05-11T14:12:48.038Z,1.30
2019-05-11T14:15:18.863Z,1.20
2019-05-11T14:17:48.895Z,1.57
2019-05-11T14:20:19.848Z,1.33
2019-05-11T14:22:49.242Z,2.40
2019-05-11T14:25:18.945Z,2.37
2019-05-11T14:27:48.422Z,1.67
2019-05-11T14:30:19.077Z,1.10
2019-05-11T14:32:48.857Z,1.20
2019-05-11T14:35:19.016Z,1.07
2019-05-11T14:37:48.836Z,0.70
2019-05-11T14:40:18.313Z,0.43
2019-05-11T14:42:48.975Z,1.37
2019-05-11T14:45:18.983Z,1.57
2019-05-11T14:47:48.561Z,0.60
2019-05-11T14:50:18.862Z,0.97
2019-05-11T14:52:49.133Z,1.67
2019-05-11T14:55:18.927Z,1.50
2019-05-11T14:57:48.701Z,1.87
2019-05-11T15:00:18.846Z,1.47
2019-05-11T15:02:49.482Z,1.50
2019-05-11T15:05:20.997Z,1.23
2019-05-11T15:07:52.661Z,1.23
2019-05-11T15:10:21.654Z,1.00
2019-05-11T15:12:51.089Z,1.30
2019-05-11T15:15:20.723Z,1.43
2019-05-11T15:17:50.150Z,1.00
2019-05-11T15:20:19.877Z,1.70
2019-05-11T15:22:49.307Z,3.20
2019-05-11T15:25:19.613Z,1.97
2019-05-11T15:27:49.476Z,1.60
2019-05-11T15:30:20.298Z,2.30
2019-05-11T15:32:49.784Z,1.17
2019-05-11T15:35:19.259Z,1.13
2019-05-11T15:37:48.843Z,1.93
2019-05-11T15:40:19.362Z,1.80
2019-05-11T15:42:48.976Z,1.43
2019-05-11T15:45:19.283Z,3.53
2019-05-11T15:47:49.073Z,1.27
2019-05-11T15:50:19.431Z,2.70
2019-05-11T15:52:49.228Z,1.70
2019-05-11T15:55:20.179Z,1.93
2019-05-11T15:57:49.651Z,2.37
2019-05-11T16:00:19.602Z,2.47
2019-05-11T16:02:49.335Z,3.60
2019-05-11T16:05:20.263Z,3.70
2019-05-11T16:07:49.676Z,4.37
2019-05-11T16:10:19.371Z,2.97
2019-05-11T16:12:49.098Z,3.93
2019-05-11T16:15:19.630Z,4.40
2019-05-11T16:17:50.038Z,2.97
2019-05-11T16:20:19.863Z,4.53
2019-05-11T16:22:49.228Z,4.23
2019-05-11T16:25:19.785Z,4.60
2019-05-11T16:27:49.670Z,3.43
2019-05-11T16:30:21.672Z,3.33
2019-05-11T16:32:50.882Z,3.90
2019-05-11T16:35:20.592Z,4.03
2019-05-11T16:37:50.007Z,4.23
2019-05-11T16:40:20.949Z,4.53
2019-05-11T16:42:50.552Z,5.43
2019-05-11T16:45:23.556Z,5.37
2019-05-11T16:47:51.528Z,6.07
2019-05-11T16:50:20.934Z,4.73
2019-05-11T16:52:50.416Z,6.83
2019-05-11T16:55:19.833Z,6.60
2019-05-11T16:57:49.270Z,6.57
2019-05-11T17:00:19.008Z,5.50
2019-05-11T17:02:49.256Z,6.03
2019-05-11T17:05:26.645Z,9.07
2019-05-11T17:07:50.279Z,7.53
2019-05-11T17:10:24.030Z,6.43
2019-05-11T17:12:53.434Z,6.43
2019-05-11T17:15:22.854Z,9.47
2019-05-11T17:17:52.261Z,6.97
2019-05-11T17:20:21.750Z,7.30
2019-05-11T17:22:53.784Z,7.87
2019-05-11T17:25:22.252Z,8.87
2019-05-11T17:27:51.714Z,7.10
2019-05-11T17:30:21.611Z,6.73
2019-05-11T17:32:51.011Z,8.87
2019-05-11T17:35:20.525Z,8.13
2019-05-11T17:37:49.924Z,6.30
2019-05-11T17:40:23.383Z,7.97
2019-05-11T17:42:53.619Z,6.93
2019-05-11T17:45:21.745Z,8.97
2019-05-11T17:47:51.152Z,7.70
2019-05-11T17:50:20.614Z,10.10
2019-05-11T17:52:50.025Z,11.97
2019-05-11T17:55:19.437Z,10.77
2019-05-11T17:57:50.451Z,11.70
2019-05-11T18:00:20.448Z,8.70
2019-05-11T18:02:49.869Z,8.97
2019-05-11T18:05:19.417Z,9.87
2019-05-11T18:07:48.857Z,7.87
2019-05-11T18:10:18.729Z,10.63
2019-05-11T18:12:48.882Z,12.27
2019-05-11T18:15:19.227Z,15.63
2019-05-11T18:17:49.107Z,27.67
2019-05-11T18:20:22.017Z,16.43
2019-05-11T18:22:50.283Z,9.90
2019-05-11T18:25:19.701Z,12.97
2019-05-11T18:27:49.202Z,12.93
2019-05-11T18:30:18.764Z,11.50
2019-05-11T18:32:49.001Z,10.40
2019-05-11T18:35:19.594Z,12.13
2019-05-11T18:37:49.285Z,11.67
2019-05-11T18:40:19.110Z,10.00
2019-05-11T18:42:49.051Z,10.80
2019-05-11T18:45:19.123Z,12.47
2019-05-11T18:47:49.322Z,12.57
2019-05-11T18:50:29.855Z,12.07
2019-05-11T18:52:50.181Z,11.47
2019-05-11T18:55:19.615Z,13.90
2019-05-11T18:57:49.440Z,13.80
2019-05-11T19:00:19.560Z,12.43
2019-05-11T19:02:49.598Z,14.20
2019-05-11T19:05:19.238Z,13.93
2019-05-11T19:07:48.646Z,12.20
2019-05-11T19:10:18.302Z,14.13
2019-05-11T19:12:48.787Z,16.43
2019-05-11T19:15:19.349Z,13.90
2019-05-11T19:17:49.359Z,13.33
2019-05-11T19:20:20.509Z,12.90
2019-05-11T19:22:49.913Z,14.43
2019-05-11T19:25:19.335Z,16.63
2019-05-11T19:27:50.751Z,13.23
2019-05-11T19:30:20.230Z,13.70
2019-05-11T19:32:49.652Z,13.97
2019-05-11T19:35:21.102Z,14.33
2019-05-11T19:37:50.195Z,13.73
2019-05-11T19:40:19.698Z,15.83
2019-05-11T19:42:53.988Z,18.67
2019-05-11T19:45:23.896Z,15.90
2019-05-11T19:47:53.303Z,14.37
2019-05-11T19:50:22.741Z,16.07
2019-05-11T19:52:52.156Z,25.97
2019-05-11T19:55:21.599Z,24.70
2019-05-11T19:57:51.023Z,113.07
2019-05-11T20:00:20.784Z,35.90
2019-05-11T20:02:50.191Z,24.63
2019-05-11T20:05:19.630Z,21.37
2019-05-11T20:07:49.158Z,19.90
2019-05-11T20:10:19.168Z,18.33
2019-05-11T20:12:48.869Z,33.83
2019-05-11T20:15:19.059Z,40.30
2019-05-11T20:17:49.133Z,22.00
2019-05-11T20:20:18.986Z,17.97
2019-05-11T20:22:48.937Z,21.07
2019-05-11T20:25:19.310Z,19.83
2019-05-11T20:27:49.187Z,28.20
2019-05-11T20:30:19.283Z,27.57
2019-05-11T20:32:49.382Z,25.63
2019-05-11T20:35:19.036Z,20.27
2019-05-11T20:37:48.447Z,23.43
2019-05-11T20:40:18.430Z,20.97
2019-05-11T20:42:48.678Z,26.00
2019-05-11T20:45:19.008Z,23.83
2019-05-11T20:47:49.010Z,21.87
2019-05-11T20:50:18.878Z,22.07
2019-05-11T20:52:48.753Z,19.30
2019-05-11T20:55:18.597Z,20.60
2019-05-11T20:57:48.688Z,20.63
2019-05-11T21:00:19.528Z,18.77
2019-05-11T21:02:49.253Z,20.47
2019-05-11T21:05:18.828Z,22.77
2019-05-11T21:07:48.342Z,21.50
2019-05-11T21:10:17.987Z,22.33
2019-05-11T21:12:47.410Z,20.93
2019-05-11T21:15:18.098Z,24.53
2019-05-11T21:17:50.216Z,21.30
2019-05-11T21:20:18.773Z,23.47
2019-05-11T21:22:48.844Z,23.67
2019-05-11T21:25:18.539Z,23.03
2019-05-11T21:27:48.709Z,49.10
2019-05-11T21:30:18.752Z,118.47
2019-05-11T21:32:48.292Z,61.57
2019-05-11T21:35:19.272Z,32.73
2019-05-11T21:37:48.977Z,29.13
2019-05-11T21:40:18.485Z,24.70
2019-05-11T21:42:47.912Z,24.43
2019-05-11T21:45:18.423Z,27.67
2019-05-11T21:47:48.983Z,24.30
2019-05-11T21:50:19.260Z,25.67
2019-05-11T21:52:48.841Z,52.97
2019-05-11T21:55:18.251Z,63.63
2019-05-11T21:57:49.854Z,66.93
2019-05-11T22:00:19.515Z,56.40
2019-05-11T22:02:48.999Z,56.47
2019-05-11T22:05:20.945Z,104.67
2019-05-11T22:07:49.557Z,35.43
2019-05-11T22:10:19.797Z,29.43
2019-05-11T22:12:49.233Z,26.67
2019-05-11T22:15:18.873Z,32.63
2019-05-11T22:17:48.294Z,27.30
2019-05-11T22:20:18.437Z,36.20
2019-05-11T22:22:48.002Z,43.57
2019-05-11T22:25:18.253Z,32.30
2019-05-11T22:27:48.748Z,29.73
2019-05-11T22:30:18.807Z,30.20
2019-05-11T22:32:48.260Z,27.90
2019-05-11T22:35:18.475Z,28.57
2019-05-11T22:37:49.099Z,53.20
2019-05-11T22:40:18.913Z,31.03
2019-05-11T22:42:48.336Z,27.60
2019-05-11T22:45:18.614Z,33.87
2019-05-11T22:47:48.340Z,33.60
2019-05-11T22:50:18.719Z,31.30
2019-05-11T22:52:48.578Z,24.47
2019-05-11T22:55:18.918Z,25.23
2019-05-11T22:57:48.795Z,23.63
2019-05-11T23:00:21.280Z,26.13
2019-05-11T23:02:50.681Z,25.83
2019-05-11T23:05:20.097Z,27.77
2019-05-11T23:07:49.501Z,25.43
2019-05-11T23:10:18.902Z,24.27
2019-05-11T23:12:49.898Z,25.17
2019-05-11T23:15:19.474Z,26.97
2019-05-11T23:17:48.878Z,29.83
2019-05-11T23:20:18.631Z,27.53
2019-05-11T23:22:57.018Z,27.47
2019-05-11T23:25:19.669Z,28.37
2019-05-11T23:27:49.195Z,26.57
2019-05-11T23:30:20.110Z,31.10
2019-05-11T23:32:50.083Z,28.30
2019-05-11T23:35:19.524Z,24.87
2019-05-11T23:37:50.002Z,24.97
2019-05-11T23:40:20.548Z,26.10
2019-05-11T23:42:50.015Z,26.43
2019-05-11T23:45:19.562Z,27.63
2019-05-11T23:47:49.268Z,26.20
2019-05-11T23:50:19.455Z,26.43
2019-05-11T23:53:04.181Z,27.77
2019-05-11T23:55:20.514Z,20.77
2019-05-11T23:57:49.950Z,21.80
